createdAt,value
2019-01-05T00:03:23.855Z,82.34
2019-01-05T00:08:26.224Z,82.23
2019-01-05T00:13:27.840Z,81.70
2019-01-05T00:18:29.363Z,82.30
2019-01-05T00:23:32.048Z,82.00
2019-01-05T00:28:33.619Z,81.89
2019-01-05T00:33:35.450Z,81.86
2019-01-05T00:38:38.965Z,81.40
2019-01-05T00:43:41.960Z,81.69
2019-01-05T00:48:43.830Z,81.40
2019-01-05T00:53:45.712Z,81.43
2019-01-05T00:58:47.395Z,82.28
2019-01-05T01:03:49.287Z,83.03
2019-01-05T01:08:50.858Z,83.25
2019-01-05T01:13:52.427Z,83.26
2019-01-05T01:18:53.945Z,84.11
2019-01-05T01:23:55.861Z,83.87
2019-01-05T01:28:57.379Z,85.06
2019-01-05T01:34:00.030Z,84.15
2019-01-05T01:39:06.045Z,85.34
2019-01-05T01:44:07.929Z,85.33
2019-01-05T01:49:09.499Z,86.54
2019-01-05T01:54:11.481Z,87.08
2019-01-05T01:59:20.531Z,86.61
2019-01-05T02:04:22.494Z,86.47
2019-01-05T02:09:24.835Z,87.13
2019-01-05T02:14:29.756Z,87.15
2019-01-05T02:19:53.345Z,87.87
2019-01-05T02:25:32.487Z,88.42
2019-01-05T02:31:06.830Z,87.96
2019-01-05T02:36:45.224Z,87.85
2019-01-05T02:42:36.400Z,88.46
2019-01-05T02:48:17.391Z,88.14
2019-01-05T02:53:57.758Z,88.79
2019-01-05T02:59:42.067Z,89.31
2019-01-05T03:05:14.975Z,89.45
2019-01-05T03:11:09.738Z,89.20
2019-01-05T03:16:48.996Z,89.25
2019-01-05T03:22:41.985Z,89.38
2019-01-05T03:28:24.369Z,88.61
2019-01-05T03:33:38.752Z,88.75
2019-01-05T03:39:01.518Z,88.49
2019-01-05T03:44:42.283Z,88.47
2019-01-05T03:50:29.496Z,87.77
2019-01-05T03:56:14.220Z,87.73
2019-01-05T04:02:03.872Z,87.85
2019-01-05T04:07:26.295Z,87.72
2019-01-05T04:13:17.902Z,88.51
2019-01-05T04:18:56.134Z,89.09
2019-01-05T04:24:34.834Z,89.63
2019-01-05T04:30:13.449Z,89.69
2019-01-05T04:35:46.342Z,89.35
2019-01-05T04:41:19.564Z,89.01
2019-01-05T04:47:10.129Z,88.69
2019-01-05T04:52:49.148Z,88.29
2019-01-05T04:58:32.214Z,88.04
2019-01-05T05:04:09.664Z,87.47
2019-01-05T05:09:49.018Z,87.57
2019-01-05T05:15:29.277Z,87.50
2019-01-05T05:21:18.098Z,87.33
2019-01-05T05:26:51.932Z,87.12
2019-01-05T05:32:29.732Z,87.06
2019-01-05T05:38:12.046Z,87.03
2019-01-05T05:44:12.677Z,86.85
2019-01-05T05:49:50.600Z,86.76
2019-01-05T05:55:18.485Z,86.50
2019-01-05T06:00:45.938Z,86.30
2019-01-05T06:06:23.990Z,86.11
2019-01-05T06:12:03.336Z,86.55
2019-01-05T06:17:40.340Z,86.35
2019-01-05T06:23:27.326Z,86.31
2019-01-05T06:28:51.312Z,86.39
2019-01-05T06:34:34.618Z,86.79
2019-01-05T06:40:13.070Z,86.77
2019-01-05T06:45:53.570Z,86.75
2019-01-05T06:51:28.558Z,86.75
2019-01-05T06:57:07.168Z,86.80
2019-01-05T07:02:42.628Z,86.13
2019-01-05T07:08:26.199Z,85.82
2019-01-05T07:14:04.784Z,85.82
2019-01-05T07:19:42.744Z,84.42
2019-01-05T07:25:21.872Z,84.25
2019-01-05T07:30:52.835Z,84.04
2019-01-05T07:36:58.535Z,83.66
2019-01-05T07:42:50.922Z,83.66
2019-01-05T07:48:39.866Z,83.74
2019-01-05T07:54:18.081Z,84.02
2019-01-05T08:00:13.020Z,84.05
2019-01-05T08:05:58.193Z,84.10
2019-01-05T08:11:35.107Z,83.65
2019-01-05T08:17:20.222Z,83.08
2019-01-05T08:22:57.886Z,82.25
2019-01-05T08:28:28.804Z,81.81
2019-01-05T08:34:06.885Z,81.38
2019-01-05T08:39:58.507Z,80.50
2019-01-05T08:45:46.635Z,80.45
2019-01-05T08:51:23.022Z,79.08
2019-01-05T08:57:05.238Z,79.09
2019-01-05T09:03:03.263Z,78.67
2019-01-05T09:08:59.805Z,78.06
2019-01-05T09:14:47.953Z,78.03
2019-01-05T09:20:23.533Z,78.78
2019-01-05T09:26:00.327Z,78.40
2019-01-05T09:31:58.100Z,78.73
2019-01-05T09:37:37.692Z,77.26
2019-01-05T09:43:07.207Z,77.46
2019-01-05T09:48:40.593Z,76.87
2019-01-05T09:54:28.287Z,77.16
2019-01-05T10:00:13.625Z,76.89
2019-01-05T10:05:47.708Z,75.99
2019-01-05T10:11:31.062Z,75.46
2019-01-05T10:17:48.876Z,75.17
2019-01-05T10:23:32.729Z,74.68
2019-01-05T10:29:17.693Z,75.52
2019-01-05T10:34:44.009Z,75.18
2019-01-05T10:40:38.705Z,75.40
2019-01-05T10:46:04.874Z,75.47
2019-01-05T10:51:57.271Z,76.00
2019-01-05T10:57:45.291Z,76.17
2019-01-05T11:03:17.204Z,76.27
2019-01-05T11:08:49.124Z,77.02
2019-01-05T11:14:39.157Z,77.67
2019-01-05T11:20:18.562Z,78.11
2019-01-05T11:26:00.643Z,78.17
2019-01-05T11:31:42.877Z,78.35
2019-01-05T11:37:30.368Z,78.21
2019-01-05T11:43:35.106Z,78.71
2019-01-05T11:49:21.592Z,79.87
2019-01-05T11:55:08.634Z,80.26
2019-01-05T12:00:52.455Z,79.94
2019-01-05T12:06:31.751Z,79.73
2019-01-05T12:12:21.424Z,79.50
2019-01-05T12:18:32.701Z,79.76
2019-01-05T12:24:24.142Z,80.02
2019-01-05T12:30:23.795Z,80.24
2019-01-05T12:36:25.596Z,80.69
2019-01-05T12:42:05.691Z,80.50
2019-01-05T12:47:58.488Z,79.90
2019-01-05T12:53:25.316Z,78.96
2019-01-05T12:59:12.372Z,79.56
2019-01-05T13:05:00.552Z,78.42
2019-01-05T13:10:30.212Z,78.05
2019-01-05T13:16:25.547Z,77.73
2019-01-05T13:22:01.860Z,78.30
2019-01-05T13:28:02.014Z,78.27
2019-01-05T13:33:50.283Z,77.69
2019-01-05T13:39:41.927Z,77.58
2019-01-05T13:45:16.962Z,77.44
2019-01-05T13:50:55.571Z,76.85
2019-01-05T13:56:12.889Z,77.16
2019-01-05T14:01:15.324Z,76.87
2019-01-05T14:06:16.838Z,77.50
2019-01-05T14:11:18.450Z,77.33
2019-01-05T14:16:20.139Z,77.45
2019-01-05T14:21:21.782Z,77.85
2019-01-05T14:26:23.904Z,77.50
2019-01-05T14:31:25.477Z,76.77
2019-01-05T14:36:27.064Z,77.43
2019-01-05T14:41:28.670Z,76.94
2019-01-05T14:46:30.223Z,76.54
2019-01-05T14:51:31.959Z,76.51
2019-01-05T14:56:33.462Z,76.11
2019-01-05T15:01:35.145Z,76.31
2019-01-05T15:06:36.734Z,76.48
2019-01-05T15:11:38.438Z,76.76
2019-01-05T15:16:40.061Z,76.76
2019-01-05T15:21:41.611Z,76.93
2019-01-05T15:26:43.232Z,77.58
2019-01-05T15:31:44.851Z,78.09
2019-01-05T15:36:46.468Z,78.55
2019-01-05T15:41:48.376Z,78.50
2019-01-05T15:46:50.213Z,78.89
2019-01-05T15:51:51.812Z,79.39
2019-01-05T15:56:53.359Z,79.70
2019-01-05T16:01:54.898Z,79.86
2019-01-05T16:06:56.484Z,79.75
2019-01-05T16:11:58.333Z,80.81
2019-01-05T16:16:59.881Z,81.84
2019-01-05T16:22:01.480Z,82.63
2019-01-05T16:27:03.077Z,84.54
2019-01-05T16:32:04.986Z,85.10
2019-01-05T16:37:06.563Z,85.31
2019-01-05T16:42:08.200Z,84.90
2019-01-05T16:47:09.780Z,84.76
2019-01-05T16:52:11.379Z,84.59
2019-01-05T16:57:12.988Z,84.63
2019-01-05T17:02:14.937Z,84.41
2019-01-05T17:07:16.453Z,84.68
2019-01-05T17:12:18.344Z,84.38
2019-01-05T17:17:19.921Z,84.57
2019-01-05T17:22:21.941Z,84.38
2019-01-05T17:27:23.531Z,84.78
2019-01-05T17:32:25.438Z,84.63
2019-01-05T17:37:27.043Z,84.47
2019-01-05T17:42:30.477Z,84.52
2019-01-05T17:47:32.044Z,84.51
2019-01-05T17:52:34.072Z,84.78
2019-01-05T17:57:37.602Z,85.18
2019-01-05T18:02:39.451Z,84.64
2019-01-05T18:07:41.023Z,85.07
2019-01-05T18:12:42.662Z,85.77
2019-01-05T18:17:44.221Z,85.88
2019-01-05T18:22:45.817Z,85.78
2019-01-05T18:27:49.188Z,85.94
2019-01-05T18:32:50.722Z,85.74
2019-01-05T18:37:52.306Z,85.45
2019-01-05T18:42:55.162Z,85.20
2019-01-05T18:47:56.689Z,84.73
2019-01-05T18:52:58.231Z,84.57
2019-01-05T18:58:00.150Z,84.40
2019-01-05T19:03:01.770Z,84.28
2019-01-05T19:08:03.343Z,84.11
2019-01-05T19:13:04.979Z,83.99
2019-01-05T19:18:10.727Z,83.80
2019-01-05T19:23:12.380Z,83.64
2019-01-05T19:28:13.922Z,83.61
2019-01-05T19:33:15.442Z,83.78
2019-01-05T19:38:17.014Z,83.84
2019-01-05T19:43:18.571Z,83.96
2019-01-05T19:48:20.253Z,83.79
2019-01-05T19:53:22.172Z,84.06
2019-01-05T19:58:23.731Z,84.30
2019-01-05T20:03:25.820Z,84.36
2019-01-05T20:08:28.737Z,84.39
2019-01-05T20:13:33.204Z,84.10
2019-01-05T20:18:34.826Z,83.83
2019-01-05T20:23:37.041Z,83.59
2019-01-05T20:28:38.641Z,83.37
2019-01-05T20:33:40.236Z,83.00
2019-01-05T20:38:48.155Z,82.57
2019-01-05T20:43:49.745Z,82.44
2019-01-05T20:48:51.690Z,81.99
2019-01-05T20:53:54.142Z,81.53
2019-01-05T20:58:55.753Z,81.20
2019-01-05T21:03:57.325Z,81.42
2019-01-05T21:08:59.246Z,81.07
2019-01-05T21:14:00.800Z,81.04
2019-01-05T21:19:02.397Z,81.01
2019-01-05T21:24:03.920Z,80.98
2019-01-05T21:29:05.483Z,80.92
2019-01-05T21:34:07.118Z,80.18
2019-01-05T21:39:09.102Z,79.70
2019-01-05T21:44:10.625Z,80.40
2019-01-05T21:49:14.023Z,80.10
2019-01-05T21:54:15.672Z,79.49
2019-01-05T21:59:17.262Z,79.31
2019-01-05T22:04:18.808Z,80.00
2019-01-05T22:09:20.382Z,79.79
2019-01-05T22:14:21.949Z,79.95
2019-01-05T22:19:23.519Z,79.38
2019-01-05T22:24:25.094Z,79.68
2019-01-05T22:29:26.868Z,80.12
2019-01-05T22:34:28.424Z,80.06
2019-01-05T22:39:30.649Z,80.18
2019-01-05T22:44:41.055Z,80.24
2019-01-05T22:49:45.588Z,80.21
2019-01-05T22:54:47.702Z,80.05
2019-01-05T22:59:49.314Z,80.29
2019-01-05T23:04:51.239Z,80.15
2019-01-05T23:09:52.750Z,80.15
2019-01-05T23:14:54.339Z,80.28
2019-01-05T23:19:56.302Z,80.21
2019-01-05T23:24:58.213Z,80.11
2019-01-05T23:29:59.763Z,80.13
2019-01-05T23:35:01.369Z,79.84
2019-01-05T23:40:03.273Z,79.90
2019-01-05T23:45:04.828Z,79.87
2019-01-05T23:50:06.416Z,79.74
2019-01-05T23:55:07.988Z,79.97
